createdAt,value
2023-02-13T00:01:18.928Z,16.15
2023-02-13T00:03:47.311Z,16.90
2023-02-13T00:06:15.686Z,16.05
2023-02-13T00:08:44.324Z,15.90
2023-02-13T00:11:12.626Z,15.85
2023-02-13T00:13:42.264Z,15.32
2023-02-13T00:16:12.052Z,15.70
2023-02-13T00:18:40.905Z,15.60
2023-02-13T00:21:10.131Z,15.77
2023-02-13T00:23:39.372Z,15.73
2023-02-13T00:26:08.845Z,15.23
2023-02-13T00:28:37.546Z,15.80
2023-02-13T00:31:08.265Z,14.90
2023-02-13T00:33:36.620Z,14.45
2023-02-13T00:36:08.538Z,14.77
2023-02-13T00:38:37.413Z,15.63
2023-02-13T00:41:06.151Z,15.10
2023-02-13T00:43:34.528Z,15.57
2023-02-13T00:46:02.853Z,15.45
2023-02-13T00:48:33.733Z,16.02
2023-02-13T00:51:02.059Z,15.32
2023-02-13T00:53:30.932Z,15.52
2023-02-13T00:55:59.464Z,15.43
2023-02-13T00:58:27.941Z,15.55
2023-02-13T01:00:56.709Z,15.43
2023-02-13T01:03:25.532Z,15.05
2023-02-13T01:05:55.232Z,15.18
2023-02-13T01:08:23.557Z,14.20
2023-02-13T01:10:52.113Z,15.27
2023-02-13T01:13:20.446Z,15.45
2023-02-13T01:15:49.141Z,14.35
2023-02-13T01:18:18.110Z,13.02
2023-02-13T01:20:46.836Z,13.43
2023-02-13T01:23:16.455Z,12.95
2023-02-13T01:25:44.806Z,13.20
2023-02-13T01:28:13.097Z,14.40
2023-02-13T01:30:41.444Z,14.48
2023-02-13T01:33:09.734Z,14.10
2023-02-13T01:35:40.531Z,14.55
2023-02-13T01:38:09.054Z,14.45
2023-02-13T01:40:38.669Z,17.23
2023-02-13T01:43:08.011Z,16.80
2023-02-13T01:45:36.417Z,16.55
2023-02-13T01:48:05.939Z,15.20
2023-02-13T01:50:35.782Z,13.05
2023-02-13T01:53:06.988Z,13.52
2023-02-13T01:55:36.763Z,15.40
2023-02-13T01:58:08.790Z,15.02
2023-02-13T02:00:37.493Z,14.40
2023-02-13T02:03:09.280Z,13.75
2023-02-13T02:05:38.259Z,15.40
2023-02-13T02:08:08.566Z,12.80
2023-02-13T02:10:37.102Z,12.68
2023-02-13T02:13:09.320Z,13.98
2023-02-13T02:15:38.007Z,14.18
2023-02-13T02:18:08.715Z,13.27
2023-02-13T02:20:48.793Z,14.27
2023-02-13T02:23:32.824Z,13.45
2023-02-13T02:26:14.683Z,11.88
2023-02-13T02:29:00.872Z,11.57
2023-02-13T02:31:53.349Z,11.93
2023-02-13T02:34:27.406Z,12.48
2023-02-13T02:37:09.513Z,11.85
2023-02-13T02:39:42.580Z,12.85
2023-02-13T02:42:17.145Z,12.02
2023-02-13T02:44:49.753Z,12.63
2023-02-13T02:47:40.148Z,12.05
2023-02-13T02:50:18.102Z,12.00
2023-02-13T02:52:50.603Z,12.32
2023-02-13T02:55:22.779Z,11.50
2023-02-13T02:58:11.816Z,11.88
2023-02-13T03:01:00.762Z,12.10
2023-02-13T03:03:47.852Z,12.05
2023-02-13T03:06:19.192Z,13.10
2023-02-13T03:09:06.104Z,12.52
2023-02-13T03:11:52.220Z,12.05
2023-02-13T03:14:22.180Z,11.73
2023-02-13T03:17:08.373Z,9.68
2023-02-13T03:20:01.444Z,11.38
2023-02-13T03:22:35.945Z,11.48
2023-02-13T03:25:09.473Z,11.98
2023-02-13T03:28:00.417Z,11.93
2023-02-13T03:30:35.015Z,13.23
2023-02-13T03:33:08.348Z,12.32
2023-02-13T03:35:57.044Z,13.40
2023-02-13T03:38:30.352Z,11.82
2023-02-13T03:41:18.347Z,12.10
2023-02-13T03:43:49.389Z,13.10
2023-02-13T03:46:19.130Z,11.40
2023-02-13T03:49:07.397Z,11.27
2023-02-13T03:51:38.398Z,13.48
2023-02-13T03:54:09.357Z,11.35
2023-02-13T03:56:59.373Z,12.82
2023-02-13T03:59:30.752Z,10.98
2023-02-13T04:02:02.278Z,11.45
2023-02-13T04:04:34.139Z,11.93
2023-02-13T04:07:04.734Z,10.35
2023-02-13T04:09:35.715Z,10.77
2023-02-13T04:12:08.118Z,10.40
2023-02-13T04:14:38.151Z,10.75
2023-02-13T04:17:07.802Z,11.85
2023-02-13T04:19:36.221Z,11.90
2023-02-13T04:22:04.546Z,10.65
2023-02-13T04:24:34.216Z,11.20
2023-02-13T04:27:02.578Z,10.60
2023-02-13T04:29:30.890Z,10.35
2023-02-13T04:31:59.249Z,12.35
2023-02-13T04:34:27.610Z,10.77
2023-02-13T04:36:55.859Z,12.57
2023-02-13T04:39:24.107Z,12.02
2023-02-13T04:41:53.714Z,10.13
2023-02-13T04:44:21.976Z,10.77
2023-02-13T04:46:50.206Z,9.48
2023-02-13T04:49:18.562Z,10.85
2023-02-13T04:51:46.850Z,9.35
2023-02-13T04:54:15.235Z,10.70
2023-02-13T04:56:43.512Z,10.52
2023-02-13T04:59:13.182Z,9.40
2023-02-13T05:01:41.471Z,10.13
2023-02-13T05:04:11.259Z,10.93
2023-02-13T05:06:39.530Z,10.75
2023-02-13T05:09:07.824Z,10.40
2023-02-13T05:11:36.152Z,10.45
2023-02-13T05:14:04.477Z,10.15
2023-02-13T05:16:34.196Z,12.48
2023-02-13T05:19:02.490Z,9.77
2023-02-13T05:21:48.700Z,10.35
2023-02-13T05:24:18.894Z,9.43
2023-02-13T05:26:48.513Z,9.32
2023-02-13T05:29:19.612Z,10.68
2023-02-13T05:31:49.968Z,9.45
2023-02-13T05:34:18.589Z,8.73
2023-02-13T05:36:46.850Z,10.02
2023-02-13T05:39:15.425Z,9.32
2023-02-13T05:41:44.351Z,9.20
2023-02-13T05:44:12.739Z,9.18
2023-02-13T05:46:41.773Z,10.32
2023-02-13T05:49:11.747Z,9.20
2023-02-13T05:51:40.011Z,10.57
2023-02-13T05:54:08.284Z,10.95
2023-02-13T05:56:36.579Z,9.30
2023-02-13T05:59:04.896Z,8.90
2023-02-13T06:01:33.181Z,8.43
2023-02-13T06:04:03.787Z,9.98
2023-02-13T06:06:33.644Z,9.18
2023-02-13T06:09:01.945Z,8.95
2023-02-13T06:11:30.212Z,9.27
2023-02-13T06:13:58.512Z,8.45
2023-02-13T06:16:26.902Z,8.93
2023-02-13T06:18:55.243Z,10.18
2023-02-13T06:21:23.541Z,8.95
2023-02-13T06:23:53.229Z,8.73
2023-02-13T06:26:21.530Z,9.23
2023-02-13T06:28:49.829Z,9.40
2023-02-13T06:31:18.208Z,8.68
2023-02-13T06:33:46.537Z,10.15
2023-02-13T06:36:14.807Z,10.85
2023-02-13T06:38:43.112Z,10.35
2023-02-13T06:41:12.754Z,10.93
2023-02-13T06:43:41.049Z,9.52
2023-02-13T06:46:09.633Z,9.20
2023-02-13T06:48:38.027Z,9.68
2023-02-13T06:51:06.572Z,11.30
2023-02-13T06:53:34.885Z,9.38
2023-02-13T06:56:05.735Z,11.32
2023-02-13T06:58:35.716Z,12.35
2023-02-13T07:01:04.079Z,12.05
2023-02-13T07:03:32.375Z,10.52
2023-02-13T07:06:00.661Z,11.30
2023-02-13T07:08:29.404Z,11.80
2023-02-13T07:10:58.386Z,13.05
2023-02-13T07:13:26.777Z,10.25
2023-02-13T07:15:58.102Z,11.93
2023-02-13T07:18:26.841Z,10.15
2023-02-13T07:20:55.450Z,10.25
2023-02-13T07:23:23.859Z,9.45
2023-02-13T07:25:52.149Z,10.75
2023-02-13T07:28:20.452Z,11.30
2023-02-13T07:30:48.844Z,12.93
2023-02-13T07:33:18.574Z,11.75
2023-02-13T07:35:48.312Z,10.98
2023-02-13T07:38:16.615Z,9.48
2023-02-13T07:40:45.200Z,11.50
2023-02-13T07:43:14.483Z,12.90
2023-02-13T07:45:42.798Z,13.10
2023-02-13T07:48:11.138Z,9.32
2023-02-13T07:50:40.829Z,9.73
2023-02-13T07:53:09.155Z,8.35
2023-02-13T07:55:39.409Z,7.55
2023-02-13T07:58:07.746Z,9.68
2023-02-13T08:00:36.065Z,10.27
2023-02-13T08:03:04.349Z,9.13
2023-02-13T08:05:33.259Z,11.10
2023-02-13T08:08:02.971Z,10.63
2023-02-13T08:10:49.107Z,8.90
2023-02-13T08:13:17.927Z,10.77
2023-02-13T08:15:47.097Z,8.45
2023-02-13T08:18:15.399Z,9.13
2023-02-13T08:20:43.796Z,8.57
2023-02-13T08:23:13.537Z,10.93
2023-02-13T08:25:42.967Z,10.63
2023-02-13T08:28:11.317Z,10.60
2023-02-13T08:30:39.725Z,8.93
2023-02-13T08:33:08.049Z,9.90
2023-02-13T08:35:36.443Z,10.10
2023-02-13T08:38:04.897Z,11.18
2023-02-13T08:40:35.048Z,9.02
2023-02-13T08:43:03.405Z,10.15
2023-02-13T08:45:32.353Z,9.38
2023-02-13T08:48:00.831Z,10.00
2023-02-13T08:50:29.492Z,9.50
2023-02-13T08:52:57.777Z,8.77
2023-02-13T08:55:26.095Z,8.38
2023-02-13T08:57:55.749Z,8.13
2023-02-13T09:00:24.092Z,7.85
2023-02-13T09:02:52.440Z,9.18
2023-02-13T09:05:20.846Z,9.90
2023-02-13T09:07:49.169Z,8.75
2023-02-13T09:10:17.630Z,9.50
2023-02-13T09:12:45.900Z,8.00
2023-02-13T09:15:15.545Z,8.90
2023-02-13T09:17:43.811Z,8.35
2023-02-13T09:20:14.016Z,8.38
2023-02-13T09:22:42.327Z,9.27
2023-02-13T09:25:10.669Z,9.15
2023-02-13T09:27:39.199Z,9.65
2023-02-13T09:30:09.083Z,8.98
2023-02-13T09:32:38.748Z,9.88
2023-02-13T09:35:07.464Z,8.25
2023-02-13T09:37:35.728Z,9.35
2023-02-13T09:40:04.303Z,10.95
2023-02-13T09:42:36.877Z,9.70
2023-02-13T09:45:06.576Z,9.45
2023-02-13T09:47:36.294Z,9.35
2023-02-13T09:50:08.348Z,8.85
2023-02-13T09:52:37.565Z,10.05
2023-02-13T09:55:15.419Z,9.20
2023-02-13T09:57:46.774Z,9.50
2023-02-13T10:00:17.601Z,9.90
2023-02-13T10:02:55.618Z,10.38
2023-02-13T10:05:30.957Z,9.98
2023-02-13T10:08:01.985Z,8.23
2023-02-13T10:10:35.231Z,9.45
2023-02-13T10:13:13.214Z,11.05
2023-02-13T10:15:44.601Z,10.63
2023-02-13T10:18:15.376Z,11.27
2023-02-13T10:20:47.605Z,11.50
2023-02-13T10:23:20.512Z,12.30
2023-02-13T10:25:51.340Z,12.67
2023-02-13T10:28:23.247Z,12.02
2023-02-13T10:30:53.686Z,12.02
2023-02-13T10:33:23.189Z,12.73
2023-02-13T10:35:55.871Z,12.05
2023-02-13T10:38:25.079Z,12.40
2023-02-13T10:41:16.522Z,12.73
2023-02-13T10:43:51.824Z,12.20
2023-02-13T10:46:24.403Z,12.90
2023-02-13T10:48:57.965Z,12.55
2023-02-13T10:51:30.624Z,11.73
2023-02-13T10:54:08.545Z,13.93
2023-02-13T10:56:38.814Z,13.90
2023-02-13T10:59:09.103Z,12.45
2023-02-13T11:01:41.952Z,11.90
2023-02-13T11:04:12.133Z,12.80
2023-02-13T11:06:43.932Z,12.57
2023-02-13T11:09:13.599Z,12.95
2023-02-13T11:11:43.332Z,12.65
2023-02-13T11:14:16.765Z,13.82
2023-02-13T11:16:49.004Z,13.15
2023-02-13T11:19:18.841Z,10.63
2023-02-13T11:21:49.002Z,10.95
2023-02-13T11:24:21.437Z,12.35
2023-02-13T11:26:52.734Z,11.27
2023-02-13T11:29:24.183Z,11.95
2023-02-13T11:32:03.330Z,11.63
2023-02-13T11:34:32.902Z,11.60
2023-02-13T11:37:16.742Z,11.13
2023-02-13T11:39:46.024Z,11.57
2023-02-13T11:42:15.671Z,9.88
2023-02-13T11:44:44.792Z,9.50
2023-02-13T11:47:14.350Z,9.45
2023-02-13T11:49:47.023Z,9.05
2023-02-13T11:52:25.414Z,11.80
2023-02-13T11:54:57.845Z,9.52
2023-02-13T11:57:29.464Z,9.15
2023-02-13T11:59:58.272Z,9.60
2023-02-13T12:02:27.339Z,9.80
2023-02-13T12:04:56.821Z,8.80
2023-02-13T12:07:28.438Z,10.82
2023-02-13T12:10:02.301Z,10.88
2023-02-13T12:12:36.723Z,10.05
2023-02-13T12:15:07.859Z,10.80
2023-02-13T12:17:36.933Z,11.07
2023-02-13T12:20:06.802Z,10.63
2023-02-13T12:22:42.432Z,11.07
2023-02-13T12:25:31.412Z,11.02
2023-02-13T12:28:17.613Z,10.77
2023-02-13T12:31:01.049Z,10.43
2023-02-13T12:33:41.494Z,11.20
2023-02-13T12:36:12.337Z,10.93
2023-02-13T12:38:48.142Z,10.40
2023-02-13T12:41:19.641Z,10.90
2023-02-13T12:44:02.966Z,10.35
2023-02-13T12:46:33.067Z,10.80
2023-02-13T12:49:09.254Z,10.23
2023-02-13T12:51:43.137Z,11.23
2023-02-13T12:56:48.323Z,9.68
2023-02-13T12:59:20.456Z,10.10
2023-02-13T13:01:56.047Z,9.95
2023-02-13T13:04:28.966Z,12.15
2023-02-13T13:07:06.608Z,10.83
2023-02-13T13:09:43.835Z,13.10
2023-02-13T13:12:17.759Z,10.50
2023-02-13T13:14:49.680Z,10.75
2023-02-13T13:17:23.667Z,9.27
2023-02-13T13:19:54.568Z,9.48
2023-02-13T13:22:25.608Z,10.77
2023-02-13T13:24:59.879Z,8.27
2023-02-13T13:27:33.534Z,8.60
2023-02-13T13:30:04.527Z,8.70
2023-02-13T13:32:34.035Z,10.70
2023-02-13T13:35:03.179Z,9.50
2023-02-13T13:37:36.491Z,8.07
2023-02-13T13:40:15.365Z,8.05
2023-02-13T13:42:53.071Z,8.52
2023-02-13T13:45:31.543Z,9.23
2023-02-13T13:48:17.910Z,10.38
2023-02-13T13:50:46.731Z,9.05
2023-02-13T13:53:19.132Z,9.13
2023-02-13T13:56:08.566Z,9.52
2023-02-13T13:58:41.162Z,9.43
2023-02-13T14:01:25.130Z,7.97
2023-02-13T14:03:55.292Z,7.78
2023-02-13T14:06:26.338Z,7.78
2023-02-13T14:09:01.350Z,8.57
2023-02-13T14:11:39.998Z,8.40
2023-02-13T14:14:50.915Z,8.20
2023-02-13T14:18:01.331Z,7.85
2023-02-13T14:20:36.869Z,8.48
2023-02-13T14:23:15.918Z,8.75
2023-02-13T14:25:45.526Z,8.15
2023-02-13T14:28:25.566Z,8.65
2023-02-13T14:31:05.735Z,8.32
2023-02-13T14:33:35.464Z,8.98
2023-02-13T14:36:07.307Z,9.00
2023-02-13T14:38:36.522Z,8.73
2023-02-13T14:41:07.273Z,7.85
2023-02-13T14:43:39.046Z,8.70
2023-02-13T14:46:33.735Z,8.80
2023-02-13T14:49:09.099Z,8.15
2023-02-13T14:51:41.602Z,8.25
2023-02-13T14:54:22.452Z,8.43
2023-02-13T14:56:52.862Z,8.38
2023-02-13T14:59:25.034Z,8.07
2023-02-13T15:01:58.823Z,8.18
2023-02-13T15:07:01.519Z,8.77
2023-02-13T15:09:35.817Z,8.38
2023-02-13T15:12:06.878Z,8.82
2023-02-13T15:14:38.699Z,8.32
2023-02-13T15:17:16.493Z,7.93
2023-02-13T15:19:49.937Z,8.02
2023-02-13T15:22:28.227Z,8.40
2023-02-13T15:24:59.362Z,7.80
2023-02-13T15:27:28.919Z,8.27
2023-02-13T15:29:59.709Z,7.55
2023-02-13T15:32:33.257Z,8.27
2023-02-13T15:35:23.810Z,7.75
2023-02-13T15:37:51.935Z,7.60
2023-02-13T15:40:26.435Z,7.85
2023-02-13T15:42:58.459Z,7.75
2023-02-13T15:45:32.012Z,8.23
2023-02-13T15:47:59.953Z,7.68
2023-02-13T15:50:38.769Z,7.63
2023-02-13T15:53:14.415Z,8.20
2023-02-13T15:55:44.492Z,8.70
2023-02-13T15:58:18.043Z,7.68
2023-02-13T16:00:46.106Z,8.05
2023-02-13T16:03:18.769Z,7.38
2023-02-13T16:05:48.837Z,7.78
2023-02-13T16:08:35.372Z,7.57
2023-02-13T16:11:25.951Z,8.93
2023-02-13T16:14:01.378Z,6.97
2023-02-13T16:16:36.419Z,7.45
2023-02-13T16:19:04.472Z,8.73
2023-02-13T16:21:38.860Z,9.45
2023-02-13T16:24:18.036Z,8.93
2023-02-13T16:26:47.140Z,9.52
2023-02-13T16:29:21.144Z,9.07
2023-02-13T16:31:51.679Z,9.70
2023-02-13T16:34:26.934Z,10.70
2023-02-13T16:36:57.122Z,10.98
2023-02-13T16:39:32.925Z,10.60
2023-02-13T16:42:02.039Z,9.95
2023-02-13T16:44:31.284Z,10.60
2023-02-13T16:47:10.849Z,10.30
2023-02-13T16:49:39.472Z,10.10
2023-02-13T16:52:18.904Z,10.55
2023-02-13T16:54:52.674Z,8.55
2023-02-13T16:57:23.078Z,7.57
2023-02-13T16:59:56.128Z,7.80
2023-02-13T17:02:25.481Z,8.80
2023-02-13T17:04:54.852Z,8.07
2023-02-13T17:07:28.939Z,8.45
2023-02-13T17:09:58.732Z,8.07
2023-02-13T17:12:27.478Z,8.18
2023-02-13T17:14:55.760Z,8.55
2023-02-13T17:17:30.814Z,9.43
2023-02-13T17:20:02.305Z,8.25
2023-02-13T17:22:35.546Z,9.05
2023-02-13T17:25:04.772Z,8.95
2023-02-13T17:27:33.451Z,8.05
2023-02-13T17:30:01.983Z,9.32
2023-02-13T17:32:30.711Z,9.50
2023-02-13T17:34:59.173Z,8.20
2023-02-13T17:37:28.309Z,8.20
2023-02-13T17:40:18.828Z,7.35
2023-02-13T17:42:47.779Z,8.35
2023-02-13T17:45:23.390Z,7.57
2023-02-13T17:47:51.803Z,7.88
2023-02-13T17:50:20.328Z,8.50
2023-02-13T17:52:49.779Z,9.02
2023-02-13T17:55:21.377Z,8.27
2023-02-13T17:57:49.858Z,9.07
2023-02-13T18:00:20.078Z,9.52
2023-02-13T18:02:48.889Z,9.35
2023-02-13T18:05:19.776Z,8.85
2023-02-13T18:07:48.574Z,8.57
2023-02-13T18:10:18.658Z,9.30
2023-02-13T18:12:51.101Z,9.55
2023-02-13T18:15:19.586Z,8.52
2023-02-13T18:17:48.435Z,8.57
2023-02-13T18:20:17.540Z,7.50
2023-02-13T18:22:46.108Z,7.80
2023-02-13T18:25:16.384Z,7.75
2023-02-13T18:27:49.883Z,8.27
2023-02-13T18:30:29.395Z,8.57
2023-02-13T18:32:59.007Z,8.38
2023-02-13T18:35:27.463Z,9.43
2023-02-13T18:37:57.812Z,9.10
2023-02-13T18:40:26.081Z,8.98
2023-02-13T18:42:55.808Z,9.95
2023-02-13T18:45:25.630Z,10.95
2023-02-13T18:47:54.533Z,11.02
2023-02-13T18:50:23.598Z,9.93
2023-02-13T18:52:51.984Z,10.57
2023-02-13T18:55:22.199Z,10.25
2023-02-13T18:57:53.373Z,11.90
2023-02-13T19:00:23.558Z,12.00
2023-02-13T19:02:52.012Z,11.25
2023-02-13T19:05:20.433Z,13.38
2023-02-13T19:07:48.726Z,12.20
2023-02-13T19:10:17.102Z,11.57
2023-02-13T19:12:45.416Z,13.25
2023-02-13T19:15:13.691Z,11.50
2023-02-13T19:17:43.491Z,12.52
2023-02-13T19:20:13.000Z,13.27
2023-02-13T19:22:42.637Z,13.65
2023-02-13T19:25:10.869Z,14.32
2023-02-13T19:27:41.532Z,12.35
2023-02-13T19:30:10.764Z,14.38
2023-02-13T19:32:39.318Z,15.68
2023-02-13T19:35:09.684Z,13.48
2023-02-13T19:37:43.842Z,14.98
2023-02-13T19:40:13.578Z,15.98
2023-02-13T19:42:41.902Z,15.10
2023-02-13T19:45:13.253Z,15.05
2023-02-13T19:47:41.590Z,16.17
2023-02-13T19:50:11.738Z,17.33
2023-02-13T19:52:40.206Z,16.52
2023-02-13T19:55:08.917Z,17.42
2023-02-13T19:57:37.480Z,16.45
2023-02-13T20:00:07.581Z,15.70
2023-02-13T20:02:38.100Z,14.63
2023-02-13T20:05:08.688Z,16.25
2023-02-13T20:07:38.814Z,14.70
2023-02-13T20:10:08.163Z,15.57
2023-02-13T20:12:36.549Z,15.35
2023-02-13T20:15:05.607Z,15.73
2023-02-13T20:17:33.958Z,17.65
2023-02-13T20:20:05.748Z,20.10
2023-02-13T20:22:36.299Z,20.65
2023-02-13T20:25:06.155Z,22.63
2023-02-13T20:27:34.510Z,19.33
2023-02-13T20:30:07.350Z,18.98
2023-02-13T20:32:36.257Z,18.00
2023-02-13T20:35:11.840Z,16.60
2023-02-13T20:37:42.447Z,17.40
2023-02-13T20:40:20.188Z,17.73
2023-02-13T20:42:51.439Z,18.42
2023-02-13T20:45:26.566Z,18.20
2023-02-13T20:47:54.905Z,21.85
2023-02-13T20:50:25.538Z,21.70
2023-02-13T20:52:57.795Z,20.17
2023-02-13T20:55:29.806Z,19.42
2023-02-13T20:57:58.218Z,18.42
2023-02-13T21:00:31.217Z,18.15
2023-02-13T21:03:02.353Z,16.77
2023-02-13T21:05:31.792Z,16.42
2023-02-13T21:08:02.495Z,14.13
2023-02-13T21:10:32.490Z,13.38
2023-02-13T21:13:02.854Z,15.75
2023-02-13T21:15:31.187Z,21.45
2023-02-13T21:18:01.735Z,18.50
2023-02-13T21:20:32.449Z,20.20
2023-02-13T21:23:04.900Z,17.85
2023-02-13T21:25:38.289Z,17.55
2023-02-13T21:28:09.180Z,16.42
2023-02-13T21:30:40.454Z,18.25
2023-02-13T21:33:08.846Z,19.02
2023-02-13T21:35:40.024Z,14.68
2023-02-13T21:38:11.116Z,17.27
2023-02-13T21:40:43.041Z,17.65
2023-02-13T21:43:14.229Z,19.67
2023-02-13T21:45:43.782Z,17.15
2023-02-13T21:48:12.117Z,18.55
2023-02-13T21:50:42.018Z,15.95
2023-02-13T21:53:10.400Z,15.35
2023-02-13T21:55:38.690Z,18.10
2023-02-13T21:58:09.075Z,18.65
2023-02-13T22:00:37.381Z,16.67
2023-02-13T22:03:05.875Z,15.32
2023-02-13T22:05:34.139Z,15.48
2023-02-13T22:08:11.531Z,15.77
2023-02-13T22:10:39.873Z,16.25
2023-02-13T22:13:09.556Z,13.90
2023-02-13T22:15:37.837Z,16.13
2023-02-13T22:18:16.510Z,16.23
2023-02-13T22:20:46.902Z,15.90
2023-02-13T22:23:15.216Z,13.60
2023-02-13T22:25:48.859Z,14.45
2023-02-13T22:28:18.989Z,13.10
2023-02-13T22:30:47.431Z,13.93
2023-02-13T22:33:15.812Z,14.18
2023-02-13T22:35:46.717Z,15.02
2023-02-13T22:38:15.046Z,15.18
2023-02-13T22:40:43.358Z,16.77
2023-02-13T22:43:11.710Z,18.52
2023-02-13T22:45:41.492Z,17.92
2023-02-13T22:48:10.063Z,16.42
2023-02-13T22:50:38.328Z,16.50
2023-02-13T22:53:06.622Z,14.75
2023-02-13T22:55:34.894Z,15.73
2023-02-13T22:58:03.176Z,16.73
2023-02-13T23:00:31.552Z,15.80
2023-02-13T23:03:01.220Z,16.10
2023-02-13T23:05:29.508Z,14.73
2023-02-13T23:07:57.781Z,15.98
2023-02-13T23:10:28.330Z,15.80
2023-02-13T23:12:55.659Z,16.13
2023-02-13T23:15:23.937Z,14.20
2023-02-13T23:18:09.859Z,14.75
2023-02-13T23:20:39.865Z,17.58
2023-02-13T23:23:08.213Z,15.40
2023-02-13T23:25:39.769Z,15.55
2023-02-13T23:28:08.294Z,17.90
2023-02-13T23:30:36.623Z,18.42
2023-02-13T23:33:04.972Z,18.63
2023-02-13T23:35:33.336Z,18.50
2023-02-13T23:38:03.032Z,17.67
2023-02-13T23:40:31.459Z,20.90
2023-02-13T23:43:04.346Z,20.38
2023-02-13T23:45:32.650Z,20.17
2023-02-13T23:48:00.959Z,19.23
2023-02-13T23:50:29.242Z,19.20
2023-02-13T23:53:16.046Z,20.02
2023-02-13T23:55:45.723Z,20.10
2023-02-13T23:58:14.086Z,21.58
